createdAt,value
2022-12-22T00:01:06.873Z,111.45
2022-12-22T00:04:47.701Z,98.10
2022-12-22T00:08:16.626Z,98.07
2022-12-22T00:11:38.929Z,89.53
2022-12-22T00:15:04.977Z,105.82
2022-12-22T00:18:36.233Z,93.05
2022-12-22T00:21:56.905Z,98.13
2022-12-22T00:25:18.472Z,98.45
2022-12-22T00:28:43.811Z,84.70
2022-12-22T00:32:11.020Z,90.93
2022-12-22T00:35:34.094Z,92.00
2022-12-22T00:38:54.826Z,85.10
2022-12-22T00:42:15.682Z,88.68
2022-12-22T00:45:43.268Z,95.15
2022-12-22T00:49:07.693Z,75.05
2022-12-22T00:52:28.604Z,82.53
2022-12-22T00:55:51.370Z,80.43
2022-12-22T00:59:19.916Z,93.43
2022-12-22T01:02:40.481Z,84.78
2022-12-22T01:06:05.690Z,92.38
2022-12-22T01:09:29.025Z,101.07
2022-12-22T01:12:55.794Z,99.18
2022-12-22T01:16:20.574Z,87.53
2022-12-22T01:19:41.433Z,70.30
2022-12-22T01:23:05.886Z,91.07
2022-12-22T01:26:32.747Z,86.90
2022-12-22T01:29:53.525Z,83.93
2022-12-22T01:33:15.580Z,79.70
2022-12-22T01:36:36.327Z,74.18
2022-12-22T01:40:01.184Z,76.10
2022-12-22T01:43:45.101Z,70.82
2022-12-22T01:47:09.596Z,68.60
2022-12-22T01:50:33.325Z,66.88
2022-12-22T01:53:57.371Z,76.28
2022-12-22T01:57:20.423Z,67.85
2022-12-22T02:00:41.553Z,68.28
2022-12-22T02:04:05.867Z,75.78
2022-12-22T02:07:47.301Z,81.45
2022-12-22T02:11:24.409Z,73.38
2022-12-22T02:15:18.103Z,65.22
2022-12-22T02:19:04.892Z,74.10
2022-12-22T02:22:54.414Z,84.07
2022-12-22T02:26:44.584Z,72.47
2022-12-22T02:30:09.727Z,74.47
2022-12-22T02:33:33.595Z,68.22
2022-12-22T02:37:05.623Z,70.97
2022-12-22T02:40:40.903Z,71.50
2022-12-22T02:44:20.235Z,72.75
2022-12-22T02:47:53.786Z,65.63
2022-12-22T02:51:23.084Z,60.25
2022-12-22T02:54:45.548Z,66.00
2022-12-22T02:58:09.179Z,61.88
2022-12-22T03:05:01.082Z,60.92
2022-12-22T03:08:23.286Z,63.33
2022-12-22T03:11:44.695Z,66.45
2022-12-22T03:15:05.909Z,69.85
2022-12-22T03:18:30.619Z,70.95
2022-12-22T03:21:53.661Z,71.22
2022-12-22T03:25:14.490Z,62.95
2022-12-22T03:28:18.496Z,66.10
2022-12-22T03:31:22.315Z,61.13
2022-12-22T03:34:27.053Z,60.78
2022-12-22T03:37:31.210Z,63.75
2022-12-22T03:40:37.501Z,63.45
2022-12-22T03:43:58.230Z,55.58
2022-12-22T03:47:06.230Z,58.60
2022-12-22T03:50:12.010Z,67.80
2022-12-22T03:53:15.574Z,59.80
2022-12-22T03:56:21.827Z,59.20
2022-12-22T03:59:30.464Z,55.65
2022-12-22T04:02:33.741Z,57.28
2022-12-22T04:05:38.639Z,40.83
2022-12-22T04:08:44.209Z,46.20
2022-12-22T04:12:06.597Z,42.72
2022-12-22T04:15:11.832Z,43.88
2022-12-22T04:18:15.335Z,49.30
2022-12-22T04:21:23.121Z,48.40
2022-12-22T04:27:30.308Z,45.45
2022-12-22T04:34:46.338Z,51.72
2022-12-22T04:38:09.703Z,55.75
2022-12-22T04:41:32.884Z,43.08
2022-12-22T04:44:58.203Z,56.47
2022-12-22T04:48:05.037Z,45.42
2022-12-22T04:51:10.417Z,52.45
2022-12-22T04:54:14.010Z,57.63
2022-12-22T04:57:17.733Z,48.45
2022-12-22T05:00:23.724Z,46.95
2022-12-22T05:03:29.937Z,47.95
2022-12-22T05:06:35.423Z,54.17
2022-12-22T05:09:41.857Z,59.58
2022-12-22T05:12:55.879Z,50.38
2022-12-22T05:16:13.335Z,53.72
2022-12-22T05:19:16.575Z,45.42
2022-12-22T05:22:23.924Z,51.15
2022-12-22T05:25:35.001Z,48.55
2022-12-22T05:28:46.217Z,50.05
2022-12-22T05:31:52.390Z,44.88
2022-12-22T05:35:00.599Z,43.90
2022-12-22T05:38:05.254Z,47.00
2022-12-22T05:41:09.137Z,40.78
2022-12-22T05:44:13.566Z,44.85
2022-12-22T05:47:19.279Z,34.65
2022-12-22T05:50:24.123Z,38.47
2022-12-22T05:53:38.680Z,34.38
2022-12-22T05:56:43.005Z,28.08
2022-12-22T05:59:49.609Z,21.80
2022-12-22T06:02:54.868Z,22.58
2022-12-22T06:05:58.654Z,23.17
2022-12-22T06:09:03.585Z,19.15
2022-12-22T06:12:12.210Z,20.73
2022-12-22T06:15:25.024Z,20.02
2022-12-22T06:18:51.662Z,24.30
2022-12-22T06:22:14.988Z,19.88
2022-12-22T06:25:39.709Z,16.73
2022-12-22T06:29:13.314Z,20.20
2022-12-22T06:32:40.401Z,18.35
2022-12-22T06:35:50.905Z,22.75
2022-12-22T06:39:20.548Z,21.90
2022-12-22T06:43:08.160Z,18.45
2022-12-22T06:46:33.356Z,19.58
2022-12-22T06:49:57.149Z,21.40
2022-12-22T06:53:20.468Z,20.40
2022-12-22T06:56:23.729Z,20.77
2022-12-22T06:59:28.403Z,26.83
2022-12-22T07:02:37.853Z,19.27
2022-12-22T07:05:41.316Z,22.40
2022-12-22T07:08:46.971Z,24.13
2022-12-22T07:11:50.245Z,23.25
2022-12-22T07:14:57.935Z,20.65
2022-12-22T07:18:01.247Z,23.73
2022-12-22T07:21:07.556Z,27.77
2022-12-22T07:24:23.056Z,22.77
2022-12-22T07:40:23.514Z,25.13
2022-12-22T07:43:48.201Z,20.83
2022-12-22T07:46:54.013Z,16.55
2022-12-22T07:50:14.857Z,18.90
2022-12-22T07:53:24.492Z,19.50
2022-12-22T07:56:31.118Z,18.30
2022-12-22T07:59:36.351Z,14.50
2022-12-22T08:02:52.837Z,14.27
2022-12-22T08:05:56.389Z,13.88
2022-12-22T08:09:10.056Z,11.65
2022-12-22T08:12:15.479Z,17.38
2022-12-22T08:15:42.592Z,14.93
2022-12-22T08:19:07.558Z,12.27
2022-12-22T08:22:14.733Z,12.43
2022-12-22T08:25:21.531Z,13.75
2022-12-22T08:45:11.341Z,9.32
2022-12-22T08:48:16.961Z,6.68
2022-12-22T08:51:20.834Z,5.78
2022-12-22T08:54:24.902Z,5.05
2022-12-22T08:57:28.212Z,9.43
2022-12-22T09:00:33.542Z,5.07
2022-12-22T09:04:27.089Z,5.03
2022-12-22T09:07:31.269Z,5.38
2022-12-22T09:15:40.654Z,5.65
2022-12-22T09:19:06.454Z,6.95
2022-12-22T09:22:29.850Z,6.60
2022-12-22T09:25:53.026Z,6.38
2022-12-22T09:28:57.586Z,5.45
2022-12-22T09:32:02.378Z,6.03
2022-12-22T09:35:06.669Z,5.38
2022-12-22T09:38:30.142Z,5.10
2022-12-22T09:41:58.389Z,2.92
2022-12-22T09:45:21.733Z,8.10
2022-12-22T09:48:48.050Z,7.13
2022-12-22T09:52:29.347Z,4.90
2022-12-22T09:55:47.371Z,4.03
2022-12-22T09:58:50.755Z,3.83
2022-12-22T10:02:14.269Z,2.25
2022-12-22T10:05:28.628Z,5.25
2022-12-22T10:08:38.401Z,3.58
2022-12-22T10:11:51.550Z,8.65
2022-12-22T10:14:58.207Z,7.00
2022-12-22T10:18:13.351Z,3.25
2022-12-22T10:21:24.003Z,7.85
2022-12-22T10:24:29.993Z,7.90
2022-12-22T10:27:41.958Z,3.30
2022-12-22T10:35:00.400Z,6.13
2022-12-22T10:38:21.560Z,3.67
2022-12-22T10:41:48.770Z,6.70
2022-12-22T10:45:39.930Z,4.05
2022-12-22T10:49:13.526Z,6.00
2022-12-22T10:52:40.649Z,6.10
2022-12-22T10:56:08.786Z,6.68
2022-12-22T10:59:21.027Z,7.38
2022-12-22T11:02:35.222Z,6.65
2022-12-22T11:05:38.935Z,7.38
2022-12-22T11:08:51.440Z,7.88
2022-12-22T11:12:07.192Z,6.10
2022-12-22T11:15:29.533Z,5.78
2022-12-22T11:18:47.202Z,4.63
2022-12-22T11:22:02.370Z,5.32
2022-12-22T11:25:34.563Z,4.82
2022-12-22T11:28:52.238Z,6.70
2022-12-22T11:32:12.047Z,7.10
2022-12-22T11:35:27.872Z,8.43
2022-12-22T11:38:50.937Z,10.30
2022-12-22T11:42:08.477Z,8.65
2022-12-22T11:45:36.412Z,5.43
2022-12-22T11:49:07.610Z,7.10
2022-12-22T11:52:26.008Z,5.00
2022-12-22T11:55:37.271Z,4.40
2022-12-22T11:59:02.285Z,8.23
2022-12-22T12:02:50.582Z,5.45
2022-12-22T12:06:27.260Z,4.85
2022-12-22T12:09:54.826Z,4.57
2022-12-22T12:13:04.755Z,4.55
2022-12-22T12:16:18.513Z,4.57
2022-12-22T12:19:49.537Z,3.40
2022-12-22T12:23:08.652Z,2.13
2022-12-22T12:26:20.539Z,3.60
2022-12-22T12:29:28.222Z,3.17
2022-12-22T12:32:39.484Z,4.55
2022-12-22T12:36:00.809Z,6.10
2022-12-22T12:39:15.555Z,6.40
2022-12-22T12:42:32.670Z,9.27
2022-12-22T12:45:56.327Z,6.05
2022-12-22T12:49:57.509Z,3.90
2022-12-22T12:53:33.096Z,4.93
2022-12-22T12:57:00.970Z,6.15
2022-12-22T13:00:33.008Z,4.38
2022-12-22T13:04:05.327Z,5.78
2022-12-22T13:07:10.383Z,9.07
2022-12-22T13:10:31.192Z,7.63
2022-12-22T13:14:07.209Z,8.73
2022-12-22T13:17:35.120Z,7.18
2022-12-22T13:21:34.518Z,2.95
2022-12-22T13:24:49.246Z,5.40
2022-12-22T13:28:17.186Z,8.40
2022-12-22T13:31:24.508Z,6.15
2022-12-22T13:34:57.312Z,9.45
2022-12-22T13:38:03.085Z,5.78
2022-12-22T13:41:20.007Z,7.60
2022-12-22T13:44:30.699Z,5.38
2022-12-22T13:47:44.176Z,6.38
2022-12-22T13:51:02.962Z,4.32
2022-12-22T13:54:32.202Z,4.65
2022-12-22T13:57:58.816Z,4.65
2022-12-22T14:01:22.254Z,13.63
2022-12-22T14:05:04.029Z,8.95
2022-12-22T14:08:20.353Z,7.43
2022-12-22T14:11:27.735Z,2.35
2022-12-22T14:14:37.301Z,5.25
2022-12-22T14:17:47.832Z,5.50
2022-12-22T14:20:56.656Z,5.72
2022-12-22T14:24:00.197Z,3.85
2022-12-22T14:27:05.102Z,4.28
2022-12-22T14:30:18.741Z,4.20
2022-12-22T14:33:52.176Z,3.92
2022-12-22T14:37:32.177Z,3.95
2022-12-22T14:40:57.629Z,3.17
2022-12-22T14:44:25.334Z,4.07
2022-12-22T14:47:50.601Z,1.75
2022-12-22T14:50:55.288Z,4.72
2022-12-22T14:54:02.822Z,4.93
2022-12-22T14:57:16.200Z,7.15
2022-12-22T15:00:33.135Z,5.55
2022-12-22T15:03:38.470Z,3.40
2022-12-22T15:06:45.629Z,5.95
2022-12-22T15:10:14.539Z,3.37
2022-12-22T15:13:37.577Z,2.70
2022-12-22T15:17:02.932Z,5.95
2022-12-22T15:20:31.241Z,1.95
2022-12-22T15:24:00.502Z,3.95
2022-12-22T15:27:30.766Z,4.50
2022-12-22T15:30:34.095Z,3.47
2022-12-22T15:33:38.754Z,3.65
2022-12-22T15:36:42.001Z,12.88
2022-12-22T15:39:47.869Z,4.97
2022-12-22T15:42:52.479Z,3.83
2022-12-22T15:45:56.076Z,4.38
2022-12-22T15:49:01.641Z,5.55
2022-12-22T15:52:05.895Z,2.20
2022-12-22T15:55:14.607Z,2.17
2022-12-22T15:58:20.215Z,3.47
2022-12-22T16:01:23.499Z,3.97
2022-12-22T16:04:28.528Z,3.50
2022-12-22T16:07:32.664Z,4.55
2022-12-22T16:10:36.029Z,8.55
2022-12-22T16:13:39.673Z,6.35
2022-12-22T16:16:42.878Z,6.05
2022-12-22T16:19:47.676Z,5.15
2022-12-22T16:22:52.538Z,4.57
2022-12-22T16:26:01.889Z,3.95
2022-12-22T16:29:05.730Z,2.63
2022-12-22T16:34:39.892Z,2.70
2022-12-22T16:37:43.603Z,2.60
2022-12-22T16:40:50.222Z,3.67
2022-12-22T16:47:22.143Z,11.18
2022-12-22T16:50:32.812Z,6.45
2022-12-22T16:53:38.569Z,4.65
2022-12-22T16:56:43.073Z,6.65
2022-12-22T16:59:46.993Z,7.07
2022-12-22T17:02:57.280Z,4.60
2022-12-22T17:06:05.770Z,4.70
2022-12-22T17:09:15.628Z,4.10
2022-12-22T17:12:22.429Z,6.88
2022-12-22T17:15:26.790Z,5.40
2022-12-22T17:18:33.320Z,6.32
2022-12-22T17:21:41.068Z,8.23
2022-12-22T17:24:45.116Z,6.53
2022-12-22T17:27:49.551Z,6.68
2022-12-22T17:30:57.518Z,4.35
2022-12-22T17:34:07.214Z,5.47
2022-12-22T17:37:15.717Z,7.78
2022-12-22T17:40:23.826Z,5.20
2022-12-22T17:43:27.260Z,3.60
2022-12-22T17:46:30.652Z,4.65
2022-12-22T17:49:33.940Z,3.67
2022-12-22T17:52:39.855Z,5.38
2022-12-22T17:59:06.916Z,9.10
2022-12-22T18:02:17.769Z,8.93
2022-12-22T18:05:27.425Z,21.70
2022-12-22T18:08:32.731Z,80.13
2022-12-22T18:11:42.119Z,34.35
2022-12-22T18:14:50.970Z,44.55
2022-12-22T18:17:54.336Z,10.95
2022-12-22T18:21:07.271Z,21.50
2022-12-22T18:24:21.497Z,15.25
2022-12-22T18:27:25.751Z,19.00
2022-12-22T18:30:32.368Z,27.67
2022-12-22T18:33:37.248Z,26.23
2022-12-22T18:36:42.870Z,31.50
2022-12-22T18:39:48.311Z,19.38
2022-12-22T18:43:02.873Z,24.63
2022-12-22T18:46:06.414Z,52.33
2022-12-22T18:49:10.022Z,33.58
2022-12-22T18:52:18.704Z,39.63
2022-12-22T18:55:26.469Z,42.85
2022-12-22T18:58:35.774Z,38.13
2022-12-22T19:01:39.379Z,30.85
2022-12-22T19:04:42.885Z,23.48
2022-12-22T19:07:53.913Z,25.08
2022-12-22T19:11:01.383Z,32.67
2022-12-22T19:14:04.702Z,48.00
2022-12-22T19:17:15.176Z,44.42
2022-12-22T19:20:23.132Z,60.65
2022-12-22T19:23:26.920Z,58.05
2022-12-22T19:26:31.654Z,34.10
2022-12-22T19:29:35.011Z,37.65
2022-12-22T19:32:43.420Z,33.03
2022-12-22T19:35:49.895Z,35.47
2022-12-22T19:39:03.825Z,36.70
2022-12-22T19:42:26.271Z,34.65
2022-12-22T19:45:37.466Z,25.33
2022-12-22T19:48:47.738Z,20.15
2022-12-22T19:51:51.483Z,23.35
2022-12-22T19:54:54.762Z,17.02
2022-12-22T19:58:16.165Z,20.45
2022-12-22T20:01:19.773Z,17.00
2022-12-22T20:04:23.152Z,14.85
2022-12-22T20:07:30.529Z,17.98
2022-12-22T20:10:36.027Z,16.05
2022-12-22T20:13:42.520Z,10.50
2022-12-22T20:16:46.739Z,13.70
2022-12-22T20:19:50.122Z,17.98
2022-12-22T20:22:56.560Z,15.35
2022-12-22T20:26:02.994Z,13.02
2022-12-22T20:29:07.698Z,15.23
2022-12-22T20:32:14.335Z,14.15
2022-12-22T20:35:18.574Z,15.25
2022-12-22T20:38:26.475Z,14.52
2022-12-22T20:41:29.869Z,20.77
2022-12-22T20:44:34.809Z,19.77
2022-12-22T20:47:42.624Z,13.48
2022-12-22T20:50:47.213Z,15.23
2022-12-22T20:53:51.476Z,13.38
2022-12-22T20:56:55.265Z,18.30
2022-12-22T21:00:01.455Z,16.05
2022-12-22T21:03:05.784Z,15.75
2022-12-22T21:06:24.667Z,20.30
2022-12-22T21:09:28.934Z,11.18
2022-12-22T21:12:32.787Z,20.25
2022-12-22T21:15:38.767Z,13.27
2022-12-22T21:18:42.443Z,14.75
2022-12-22T21:21:46.991Z,16.38
2022-12-22T21:24:50.332Z,18.92
2022-12-22T21:27:57.831Z,16.52
2022-12-22T21:31:03.772Z,20.48
2022-12-22T21:34:07.411Z,21.95
2022-12-22T21:37:17.667Z,19.42
2022-12-22T21:40:23.533Z,16.48
2022-12-22T21:43:27.040Z,19.02
2022-12-22T21:46:32.484Z,20.27
2022-12-22T21:49:36.263Z,14.45
2022-12-22T21:52:39.696Z,24.23
2022-12-22T21:55:44.936Z,19.00
2022-12-22T21:58:49.139Z,22.90
2022-12-22T22:01:55.662Z,20.38
2022-12-22T22:05:01.957Z,24.08
2022-12-22T22:08:07.283Z,26.33
2022-12-22T22:11:18.117Z,20.30
2022-12-22T22:14:21.280Z,22.80
2022-12-22T22:17:26.064Z,17.60
2022-12-22T22:20:31.663Z,14.25
2022-12-22T22:23:35.002Z,21.10
2022-12-22T22:26:38.165Z,17.77
2022-12-22T22:29:41.401Z,15.77
2022-12-22T22:34:39.701Z,23.63
2022-12-22T22:37:45.690Z,34.40
2022-12-22T22:40:50.071Z,20.65
2022-12-22T22:43:55.065Z,16.63
2022-12-22T22:46:58.412Z,21.60
2022-12-22T22:50:06.599Z,26.55
2022-12-22T22:53:10.123Z,18.10
2022-12-22T22:56:13.481Z,25.75
2022-12-22T22:59:17.109Z,19.60
2022-12-22T23:02:21.408Z,22.42
2022-12-22T23:05:26.470Z,22.63
2022-12-22T23:08:30.767Z,25.95
2022-12-22T23:11:34.367Z,21.98
2022-12-22T23:14:38.229Z,19.10
2022-12-22T23:17:42.367Z,27.33
2022-12-22T23:20:49.515Z,24.50
2022-12-22T23:23:56.477Z,29.08
2022-12-22T23:27:00.300Z,19.52
2022-12-22T23:30:03.877Z,22.90
2022-12-22T23:33:07.629Z,21.75
2022-12-22T23:36:12.730Z,28.98
2022-12-22T23:39:17.277Z,22.45
2022-12-22T23:42:20.755Z,26.10
2022-12-22T23:45:24.088Z,21.45
2022-12-22T23:48:52.068Z,22.23
2022-12-22T23:52:16.590Z,26.60
2022-12-22T23:55:45.731Z,23.80
2022-12-22T23:59:09.346Z,25.90
